Time;durP1;ratioP1;P1;durP2;ratioP2;P2;SDS_P1;SDS_P2;PMS_P1;PMS_P2;Temp;Humidity;BMP_temperature;BMP_pressure;BME280_temperature;BME280_humidity;BME280_pressure;Samples;Min_cycle;Max_cycle;Signal;HPM_P1;HPM_P2
2021/07/10 00:00:08;;;;;;;17.03;7.07;;;;;;;-145.18;100.00;60484.78;5060416;28;20043;-72
2021/07/10 00:02:34;;;;;;;15.43;7.05;;;;;;;-145.18;100.00;60484.78;5058299;28;20053;-72
2021/07/10 00:05:00;;;;;;;16.70;6.90;;;;;;;-145.18;100.00;60484.78;5059963;28;20035;-72
2021/07/10 00:07:25;;;;;;;19.90;7.43;;;;;;;-145.18;100.00;60484.78;5060944;28;20297;-72
2021/07/10 00:09:51;;;;;;;20.03;7.53;;;;;;;-145.18;100.00;60484.78;5060894;28;20024;-72
2021/07/10 00:12:17;;;;;;;20.87;7.73;;;;;;;-145.18;100.00;60484.78;5060890;28;20109;-73
2021/07/10 00:14:43;;;;;;;20.53;7.43;;;;;;;-145.18;100.00;60484.78;5060837;28;20026;-73
2021/07/10 00:17:09;;;;;;;18.80;8.10;;;;;;;-145.18;100.00;60484.78;5060855;28;20500;-72
2021/07/10 00:19:34;;;;;;;20.50;7.73;;;;;;;-145.18;100.00;60484.78;5060619;28;20158;-72
2021/07/10 00:22:00;;;;;;;18.63;7.07;;;;;;;-145.18;100.00;60484.78;5060858;28;20091;-72
2021/07/10 00:24:29;;;;;;;16.97;7.13;;;;;;;-145.18;100.00;60484.78;5060648;28;20024;-74
2021/07/10 00:26:54;;;;;;;18.43;8.07;;;;;;;-145.18;100.00;60484.78;5060268;28;20128;-72
2021/07/10 00:29:20;;;;;;;17.70;7.53;;;;;;;-145.18;100.00;60484.78;5060362;28;20112;-73
2021/07/10 00:31:45;;;;;;;21.50;8.17;;;;;;;-145.18;100.00;60484.78;5060287;28;20032;-72
2021/07/10 00:34:11;;;;;;;20.57;8.10;;;;;;;-145.18;100.00;60484.78;5060385;28;20393;-72
2021/07/10 00:36:38;;;;;;;17.83;7.17;;;;;;;-145.18;100.00;60484.78;5060164;28;20059;-73
2021/07/10 00:39:04;;;;;;;19.40;7.40;;;;;;;-145.18;100.00;60484.78;5060313;28;20400;-73
2021/07/10 00:41:30;;;;;;;16.97;7.33;;;;;;;-145.18;100.00;60484.78;5060150;28;20020;-73
2021/07/10 00:43:55;;;;;;;19.60;8.10;;;;;;;-145.18;100.00;60484.78;5060713;28;20020;-72
2021/07/10 00:46:21;;;;;;;19.63;7.70;;;;;;;-145.18;100.00;60484.78;5058506;28;20033;-72
2021/07/10 00:48:48;;;;;;;23.47;8.67;;;;;;;-145.18;100.00;60484.78;5060025;28;20488;-72
2021/07/10 00:51:14;;;;;;;21.73;7.73;;;;;;;-145.18;100.00;60484.78;5060270;28;20028;-73
2021/07/10 00:53:39;;;;;;;23.33;8.93;;;;;;;-145.18;100.00;60484.78;5059753;28;20512;-72
2021/07/10 00:56:05;;;;;;;24.50;8.53;;;;;;;-145.18;100.00;60484.78;5059871;28;20075;-72
2021/07/10 00:58:31;;;;;;;22.83;8.07;;;;;;;-145.18;100.00;60484.78;5068336;28;20028;-72
2021/07/10 01:00:56;;;;;;;21.60;8.27;;;;;;;-145.18;100.00;60484.78;5060427;28;20028;-72
2021/07/10 01:03:22;;;;;;;23.17;8.47;;;;;;;-145.18;100.00;60484.78;5080521;22;20056;-71
2021/07/10 01:05:47;;;;;;;21.47;8.20;;;;;;;-145.18;100.00;60484.78;5059201;28;20120;-71
2021/07/10 01:08:13;;;;;;;20.10;7.27;;;;;;;-145.18;100.00;60484.78;5054556;28;20505;-71
2021/07/10 01:10:39;;;;;;;21.13;8.07;;;;;;;-145.18;100.00;60484.78;5059329;28;20036;-71
2021/07/10 01:13:09;;;;;;;18.30;7.27;;;;;;;-145.18;100.00;60484.78;5055445;28;20035;-71
2021/07/10 01:15:34;;;;;;;22.73;7.73;;;;;;;-145.18;100.00;60484.78;5059469;28;20170;-71
2021/07/10 01:17:59;;;;;;;19.13;7.53;;;;;;;-145.18;100.00;60484.78;5056473;28;20139;-71
2021/07/10 01:20:27;;;;;;;24.60;8.53;;;;;;;-145.18;100.00;60484.78;5058950;28;20048;-71
2021/07/10 01:22:56;;;;;;;22.93;8.43;;;;;;;-145.18;100.00;60484.78;5057364;28;20113;-71
2021/07/10 01:25:23;;;;;;;25.80;9.20;;;;;;;-145.18;100.00;60484.78;5059478;28;20039;-71
2021/07/10 01:27:50;;;;;;;27.23;8.67;;;;;;;-145.18;100.00;60484.78;5058216;28;20197;-71
2021/07/10 01:30:20;;;;;;;24.17;8.33;;;;;;;-145.18;100.00;60484.78;5059239;28;20047;-71
2021/07/10 01:32:51;;;;;;;22.17;8.03;;;;;;;-145.18;100.00;60484.78;5046079;28;20400;-71
2021/07/10 01:35:18;;;;;;;19.05;8.10;;;;;;;-145.18;100.00;60484.78;5059333;28;20143;-71
2021/07/10 01:37:43;;;;;;;21.37;7.00;;;;;;;-145.18;100.00;60484.78;5047809;28;20025;-71
2021/07/10 01:40:12;;;;;;;22.03;7.73;;;;;;;-145.18;100.00;60484.78;5059270;28;20032;-71
2021/07/10 01:42:37;;;;;;;20.33;7.83;;;;;;;-145.18;100.00;60484.78;5058360;28;20035;-71
2021/07/10 01:45:04;;;;;;;22.87;8.83;;;;;;;-145.18;100.00;60484.78;5058949;28;20250;-71
2021/07/10 01:47:29;;;;;;;25.07;9.00;;;;;;;-145.18;100.00;60484.78;5052699;28;20083;-71
2021/07/10 01:49:55;;;;;;;21.83;8.10;;;;;;;-145.18;100.00;60484.78;5061381;28;20027;-71
2021/07/10 01:52:21;;;;;;;27.43;8.17;;;;;;;-145.18;100.00;60484.78;5056461;28;20036;-71
2021/07/10 01:54:46;;;;;;;21.50;7.87;;;;;;;-145.18;100.00;60484.78;5062305;28;20085;-71
2021/07/10 01:57:12;;;;;;;18.97;7.37;;;;;;;-145.18;100.00;60484.78;5057701;28;20108;-71
2021/07/10 01:59:38;;;;;;;22.33;7.73;;;;;;;-145.18;100.00;60484.78;5062391;28;20396;-71
2021/07/10 02:02:04;;;;;;;22.20;7.97;;;;;;;-145.18;100.00;60484.78;5058729;28;20040;-71
2021/07/10 02:04:30;;;;;;;21.27;7.63;;;;;;;-145.18;100.00;60484.78;5062054;28;20079;-71
2021/07/10 02:06:56;;;;;;;23.67;8.07;;;;;;;-145.18;100.00;60484.78;5059439;28;20112;-71
2021/07/10 02:09:22;;;;;;;26.30;8.77;;;;;;;-145.18;100.00;60484.78;5062149;28;20017;-71
2021/07/10 02:11:49;;;;;;;23.97;9.37;;;;;;;-145.18;100.00;60484.78;5061112;28;20489;-71
2021/07/10 02:14:17;;;;;;;28.07;9.33;;;;;;;-145.18;100.00;60484.78;5062249;28;20103;-71
2021/07/10 02:16:44;;;;;;;35.27;10.87;;;;;;;-145.18;100.00;60484.78;5052797;28;20021;-71
2021/07/10 02:19:09;;;;;;;32.93;9.43;;;;;;;-145.18;100.00;60484.78;5058305;28;20602;-71
2021/07/10 02:21:37;;;;;;;34.60;10.27;;;;;;;-145.18;100.00;60484.78;5055726;28;20108;-71
2021/07/10 02:24:05;;;;;;;36.90;10.67;;;;;;;-145.18;100.00;60484.78;5058415;28;20032;-71
2021/07/10 02:26:30;;;;;;;30.30;9.67;;;;;;;-145.18;100.00;60484.78;5055885;28;20029;-71
2021/07/10 02:28:56;;;;;;;27.80;9.43;;;;;;;-145.18;100.00;60484.78;5058776;28;20025;-71
2021/07/10 02:31:21;;;;;;;29.53;11.47;;;;;;;-145.18;100.00;60484.78;5058202;28;20675;-71
2021/07/10 02:33:47;;;;;;;25.60;7.77;;;;;;;-145.18;100.00;60484.78;5062036;28;20111;-71
2021/07/10 02:36:13;;;;;;;20.43;6.67;;;;;;;-145.18;100.00;60484.78;5062049;28;20024;-71
2021/07/10 02:38:38;;;;;;;21.03;7.37;;;;;;;-145.18;100.00;60484.78;5061083;28;20024;-71
2021/07/10 02:41:04;;;;;;;18.00;6.53;;;;;;;-145.18;100.00;60484.78;5065389;28;20548;-71
2021/07/10 02:43:29;;;;;;;19.27;7.10;;;;;;;-145.18;100.00;60484.78;5065715;28;20028;-71
2021/07/10 02:45:55;;;;;;;20.50;7.57;;;;;;;-145.18;100.00;60484.78;5065079;28;20024;-71
2021/07/10 02:48:20;;;;;;;23.73;8.37;;;;;;;-145.18;100.00;60484.78;5064269;28;20029;-71
2021/07/10 02:50:46;;;;;;;20.07;7.47;;;;;;;-145.18;100.00;60484.78;5056745;28;20028;-71
2021/07/10 02:53:11;;;;;;;25.77;8.07;;;;;;;-145.18;100.00;60484.78;5061023;28;20036;-71
2021/07/10 02:55:37;;;;;;;25.37;8.43;;;;;;;-145.18;100.00;60484.78;5065940;28;20100;-71
2021/07/10 02:58:03;;;;;;;23.77;7.90;;;;;;;-145.18;100.00;60484.78;5062186;28;20034;-71
2021/07/10 03:00:29;;;;;;;28.27;9.10;;;;;;;-145.18;100.00;60484.78;5065483;28;20230;-71
2021/07/10 03:02:59;;;;;;;30.00;8.57;;;;;;;-145.18;100.00;60484.78;5062804;28;20070;-71
2021/07/10 03:05:27;;;;;;;33.20;9.83;;;;;;;-145.18;100.00;60484.78;5065183;28;20507;-71
2021/07/10 03:07:53;;;;;;;30.43;9.67;;;;;;;-145.18;100.00;60484.78;5063845;28;20025;-71
2021/07/10 03:10:22;;;;;;;33.37;10.70;;;;;;;-145.18;100.00;60484.78;5065280;28;20104;-71
2021/07/10 03:12:48;;;;;;;23.20;8.63;;;;;;;-145.18;100.00;60484.78;5065751;28;20112;-71
2021/07/10 03:15:16;;;;;;;26.40;9.37;;;;;;;-145.18;100.00;60484.78;5065066;28;20028;-71
2021/07/10 03:17:48;;;;;;;22.97;8.73;;;;;;;-145.18;100.00;60484.78;5051759;28;20544;-71
2021/07/10 03:20:14;;;;;;;27.83;9.00;;;;;;;-145.18;100.00;60484.78;5065124;28;20052;-71
2021/07/10 03:22:40;;;;;;;33.63;8.80;;;;;;;-145.18;100.00;60484.78;5052841;28;20032;-71
2021/07/10 03:25:08;;;;;;;29.23;9.47;;;;;;;-145.18;100.00;60484.78;5065078;28;20043;-71
2021/07/10 03:27:34;;;;;;;26.90;9.50;;;;;;;-145.18;100.00;60484.78;5053159;28;20077;-71
2021/07/10 03:30:01;;;;;;;28.20;9.97;;;;;;;-145.18;100.00;60484.78;5064880;28;20535;-71
2021/07/10 03:32:26;;;;;;;31.20;10.33;;;;;;;-145.18;100.00;60484.78;5054312;28;20036;-71
2021/07/10 03:34:52;;;;;;;28.93;9.93;;;;;;;-145.18;100.00;60484.78;5064628;28;20020;-71
2021/07/10 03:37:18;;;;;;;27.43;9.77;;;;;;;-145.18;100.00;60484.78;5055181;28;20140;-71
2021/07/10 03:39:43;;;;;;;34.53;10.27;;;;;;;-145.18;100.00;60484.78;5064495;28;20070;-71
2021/07/10 03:42:09;;;;;;;33.97;9.77;;;;;;;-145.18;100.00;60484.78;5063527;28;20029;-71
2021/07/10 03:44:34;;;;;;;26.17;9.23;;;;;;;-145.18;100.00;60484.78;5064402;28;20032;-71
2021/07/10 03:47:00;;;;;;;23.10;8.87;;;;;;;-145.18;100.00;60484.78;5057185;28;20303;-71
2021/07/10 03:49:26;;;;;;;26.13;8.87;;;;;;;-145.18;100.00;60484.78;5064245;28;20036;-71
2021/07/10 03:51:52;;;;;;;23.80;8.60;;;;;;;-145.18;100.00;60484.78;5058166;28;20373;-71
2021/07/10 03:54:17;;;;;;;24.23;8.50;;;;;;;-145.18;100.00;60484.78;5064339;28;20035;-71
2021/07/10 03:56:43;;;;;;;21.87;8.10;;;;;;;-145.18;100.00;60484.78;5059100;28;20435;-71
2021/07/10 03:59:08;;;;;;;27.87;8.37;;;;;;;-145.18;100.00;60484.78;5064012;28;20748;-71
2021/07/10 04:01:34;;;;;;;25.20;8.10;;;;;;;-145.18;100.00;60484.78;5060467;28;20031;-72
2021/07/10 04:04:01;;;;;;;21.50;8.53;;;;;;;-145.18;100.00;60484.78;5063689;28;20049;-72
2021/07/10 04:06:26;;;;;;;24.90;8.63;;;;;;;-145.18;100.00;60484.78;5061000;28;20024;-70
2021/07/10 04:08:52;;;;;;;22.43;7.37;;;;;;;-145.18;100.00;60484.78;5063949;28;20706;-70
2021/07/10 04:11:17;;;;;;;19.43;6.87;;;;;;;-145.18;100.00;60484.78;5062362;28;20558;-70
2021/07/10 04:13:43;;;;;;;23.37;9.23;;;;;;;-145.18;100.00;60484.78;5063744;28;20024;-70
2021/07/10 04:16:08;;;;;;;21.53;8.03;;;;;;;-145.18;100.00;60484.78;5060638;28;20028;-71
2021/07/10 04:18:34;;;;;;;24.87;9.00;;;;;;;-145.18;100.00;60484.78;5053831;28;20728;-71
2021/07/10 04:20:59;;;;;;;24.73;8.97;;;;;;;-145.18;100.00;60484.78;5061762;28;20104;-71
2021/07/10 04:23:25;;;;;;;18.13;7.50;;;;;;;-145.18;100.00;60484.78;5053675;28;20073;-72
2021/07/10 04:25:52;;;;;;;17.97;7.60;;;;;;;-145.18;100.00;60484.78;5062834;28;20024;-73
2021/07/10 04:28:17;;;;;;;21.27;7.03;;;;;;;-145.18;100.00;60484.78;5053925;28;20028;-73
2021/07/10 04:30:44;;;;;;;15.23;7.33;;;;;;;-145.18;100.00;60484.78;5063042;28;20039;-76
2021/07/10 04:33:09;;;;;;;17.53;8.10;;;;;;;-145.18;100.00;60484.78;5054385;28;20044;-77
2021/07/10 04:35:35;;;;;;;14.90;6.57;;;;;;;-145.18;100.00;60484.78;5063359;28;20021;-77
2021/07/10 04:38:01;;;;;;;16.27;6.60;;;;;;;-145.18;100.00;60484.78;5055154;28;20027;-73
2021/07/10 04:40:26;;;;;;;18.03;7.43;;;;;;;-145.18;100.00;60484.78;5063421;28;20024;-72
2021/07/10 04:42:52;;;;;;;15.77;7.30;;;;;;;-145.18;100.00;60484.78;5062722;28;20048;-71
2021/07/10 04:45:18;;;;;;;15.40;7.60;;;;;;;-145.18;100.00;60484.78;5065195;28;20100;-71
2021/07/10 04:47:44;;;;;;;18.00;7.33;;;;;;;-145.18;100.00;60484.78;5057516;28;20028;-72
2021/07/10 04:50:11;;;;;;;18.33;7.30;;;;;;;-145.18;100.00;60484.78;5062936;28;20528;-73
2021/07/10 04:52:36;;;;;;;18.63;6.67;;;;;;;-145.18;100.00;60484.78;5059218;28;20557;-72
2021/07/10 04:55:04;;;;;;;16.20;7.40;;;;;;;-145.18;100.00;60484.78;5062491;28;20028;-73
2021/07/10 04:57:29;;;;;;;15.30;7.17;;;;;;;-145.18;100.00;60484.78;5057753;28;20055;-72
2021/07/10 04:59:55;;;;;;;16.93;7.43;;;;;;;-145.18;100.00;60484.78;5063063;28;20044;-72
2021/07/10 05:02:20;;;;;;;18.53;7.63;;;;;;;-145.18;100.00;60484.78;5061126;28;20115;-72
2021/07/10 05:04:46;;;;;;;15.13;7.47;;;;;;;-145.18;100.00;60484.78;5062594;28;20858;-72
2021/07/10 05:07:11;;;;;;;20.70;7.53;;;;;;;-145.18;100.00;60484.78;5062751;28;20041;-72
2021/07/10 05:09:37;;;;;;;17.20;7.47;;;;;;;-145.18;100.00;60484.78;5062908;28;20028;-72
2021/07/10 05:12:03;;;;;;;16.13;7.60;;;;;;;-145.18;100.00;60484.78;5062555;28;20380;-72
2021/07/10 05:14:31;;;;;;;16.33;7.97;;;;;;;-145.18;100.00;60484.78;5062619;28;20032;-72
2021/07/10 05:16:57;;;;;;;17.03;7.97;;;;;;;-145.18;100.00;60484.78;5053265;28;20028;-72
2021/07/10 05:19:22;;;;;;;16.80;8.10;;;;;;;-145.18;100.00;60484.78;5059643;28;20248;-72
2021/07/10 05:21:48;;;;;;;15.13;6.93;;;;;;;-145.18;100.00;60484.78;5054427;28;20067;-74
2021/07/10 05:24:13;;;;;;;18.30;7.70;;;;;;;-145.18;100.00;60484.78;5058950;28;20060;-74
2021/07/10 05:26:39;;;;;;;17.57;6.60;;;;;;;-145.18;100.00;60484.78;5062507;28;20120;-74
2021/07/10 05:29:05;;;;;;;14.00;6.90;;;;;;;-145.18;100.00;60484.78;5049542;28;20123;-76
2021/07/10 05:31:31;;;;;;;17.30;7.03;;;;;;;-145.18;100.00;60484.78;5072580;28;20389;-79
2021/07/10 05:33:59;;;;;;;12.37;6.43;;;;;;;-145.18;100.00;60484.78;5082074;28;20035;-79
2021/07/10 05:36:25;;;;;;;15.47;7.27;;;;;;;-145.18;100.00;60484.78;5072451;28;20039;-79
2021/07/10 05:38:51;;;;;;;15.80;6.50;;;;;;;-145.18;100.00;60484.78;5070951;28;20088;-78
2021/07/10 05:41:16;;;;;;;15.33;7.27;;;;;;;-145.18;100.00;60484.78;5077571;28;20033;-80
2021/07/10 05:43:42;;;;;;;15.00;7.30;;;;;;;-145.18;100.00;60484.78;5072752;28;20243;-82
2021/07/10 05:46:08;;;;;;;19.83;7.10;;;;;;;-145.18;100.00;60484.78;5066720;28;20118;-80
2021/07/10 05:48:34;;;;;;;14.70;7.00;;;;;;;-145.18;100.00;60484.78;5065261;28;20029;-81
2021/07/10 05:50:59;;;;;;;13.82;7.35;;;;;;;-145.18;100.00;60484.78;5066903;28;20404;-80
2021/07/10 05:53:25;;;;;;;15.00;7.18;;;;;;;-145.18;100.00;60484.78;5063663;28;20020;-81
2021/07/10 05:55:50;;;;;;;15.05;7.22;;;;;;;-145.18;100.00;60484.78;5065546;28;20378;-78
2021/07/10 05:58:16;;;;;;;13.75;6.65;;;;;;;-145.18;100.00;60484.78;5059625;28;20025;-73
2021/07/10 06:00:42;;;;;;;13.48;7.03;;;;;;;-145.18;100.00;60484.78;5062568;28;20097;-74
2021/07/10 06:03:08;;;;;;;12.57;6.95;;;;;;;-145.18;100.00;60484.78;5058625;28;20028;-74
2021/07/10 06:05:33;;;;;;;13.50;7.30;;;;;;;-145.18;100.00;60484.78;5063518;28;20657;-74
2021/07/10 06:07:59;;;;;;;12.18;6.40;;;;;;;-145.18;100.00;60484.78;5063157;28;20176;-75
2021/07/10 06:10:24;;;;;;;13.25;6.93;;;;;;;-145.18;100.00;60484.78;5066119;28;20077;-74
2021/07/10 06:12:50;;;;;;;14.32;6.93;;;;;;;-145.18;100.00;60484.78;5067667;28;20181;-78
2021/07/10 06:15:17;;;;;;;13.10;6.47;;;;;;;-145.18;100.00;60484.78;5071717;28;20028;-79
2021/07/10 06:17:43;;;;;;;16.25;7.30;;;;;;;-145.18;100.00;60484.78;5067619;28;20704;-78
2021/07/10 06:20:12;;;;;;;14.77;7.07;;;;;;;-145.18;100.00;60484.78;5068379;28;20497;-76
2021/07/10 06:22:39;;;;;;;14.48;6.57;;;;;;;-145.18;100.00;60484.78;5055640;28;20034;-77
2021/07/10 06:25:07;;;;;;;14.73;6.40;;;;;;;-145.18;100.00;60484.78;5071514;28;20498;-78
2021/07/10 06:27:32;;;;;;;14.68;6.60;;;;;;;-145.18;100.00;60484.78;5056331;28;20025;-78
2021/07/10 06:29:58;;;;;;;13.25;6.93;;;;;;;-145.18;100.00;60484.78;5072933;28;20047;-78
2021/07/10 06:32:23;;;;;;;13.80;6.45;;;;;;;-145.18;100.00;60484.78;5069284;28;20050;-77
2021/07/10 06:34:49;;;;;;;12.00;6.20;;;;;;;-145.18;100.00;60484.78;5067245;28;20029;-77
2021/07/10 06:37:14;;;;;;;12.77;6.22;;;;;;;-145.18;100.00;60484.78;5057079;28;20028;-76
2021/07/10 06:39:40;;;;;;;11.45;6.55;;;;;;;-145.18;100.00;60484.78;5065693;28;20511;-75
2021/07/10 06:42:05;;;;;;;12.02;6.15;;;;;;;-145.18;100.00;60484.78;5064862;28;20094;-75
2021/07/10 06:44:31;;;;;;;12.05;6.60;;;;;;;-145.18;100.00;60484.78;5065504;28;20020;-75
2021/07/10 06:46:57;;;;;;;10.82;6.43;;;;;;;-145.18;100.00;60484.78;5061529;28;20035;-73
2021/07/10 06:49:23;;;;;;;14.73;6.70;;;;;;;-145.18;100.00;60484.78;5065435;28;20052;-73
2021/07/10 06:51:49;;;;;;;12.57;6.40;;;;;;;-145.18;100.00;60484.78;5059702;28;20039;-72
2021/07/10 06:54:14;;;;;;;14.02;6.90;;;;;;;-145.18;100.00;60484.78;5065263;28;20020;-72
2021/07/10 06:56:40;;;;;;;15.63;6.82;;;;;;;-145.18;100.00;60484.78;5066030;28;20111;-71
2021/07/10 06:59:05;;;;;;;13.30;7.30;;;;;;;-145.18;100.00;60484.78;5065874;28;20691;-72
2021/07/10 07:01:31;;;;;;;14.68;7.35;;;;;;;-145.18;100.00;60484.78;5059997;28;20527;-74
2021/07/10 07:03:56;;;;;;;12.35;6.88;;;;;;;-145.18;100.00;60484.78;5062978;28;20040;-73
2021/07/10 07:06:22;;;;;;;14.27;6.70;;;;;;;-145.18;100.00;60484.78;5062188;28;20040;-72
2021/07/10 07:08:47;;;;;;;16.52;7.65;;;;;;;-145.18;100.00;60484.78;5065139;28;20028;-71
2021/07/10 07:11:13;;;;;;;13.82;7.07;;;;;;;-145.18;100.00;60484.78;5064213;28;20052;-75
2021/07/10 07:13:39;;;;;;;13.10;6.15;;;;;;;-145.18;100.00;60484.78;5066400;28;20099;-76
2021/07/10 07:16:06;;;;;;;12.77;6.68;;;;;;;-145.18;100.00;60484.78;5062662;28;20535;-77
2021/07/10 07:18:31;;;;;;;12.88;6.28;;;;;;;-145.18;100.00;60484.78;5054492;28;20518;-76
2021/07/10 07:20:57;;;;;;;12.50;7.03;;;;;;;-145.18;100.00;60484.78;5063991;28;20032;-77
2021/07/10 07:23:23;;;;;;;12.60;6.45;;;;;;;-145.18;100.00;60484.78;5054328;28;20176;-76
2021/07/10 07:25:48;;;;;;;13.13;6.53;;;;;;;-145.18;100.00;60484.78;5064750;28;20377;-77
2021/07/10 07:28:14;;;;;;;12.05;6.40;;;;;;;-145.18;100.00;60484.78;5064421;28;20672;-77
2021/07/10 07:30:40;;;;;;;9.82;5.55;;;;;;;-145.18;100.00;60484.78;5064475;28;20043;-76
2021/07/10 07:33:06;;;;;;;13.50;6.70;;;;;;;-145.18;100.00;60484.78;5054798;28;20165;-75
2021/07/10 07:35:32;;;;;;;14.80;7.10;;;;;;;-145.18;100.00;60484.78;5064753;28;20111;-76
2021/07/10 07:37:57;;;;;;;14.00;7.35;;;;;;;-145.18;100.00;60484.78;5056129;28;20020;-76
2021/07/10 07:40:23;;;;;;;12.45;6.63;;;;;;;-145.18;100.00;60484.78;5064951;28;20028;-75
2021/07/10 07:42:49;;;;;;;14.10;7.38;;;;;;;-145.18;100.00;60484.78;5060100;28;20781;-74
2021/07/10 07:45:17;;;;;;;14.20;7.72;;;;;;;-145.18;100.00;60484.78;5055908;28;20032;-73
2021/07/10 07:47:42;;;;;;;15.50;7.93;;;;;;;-145.18;100.00;60484.78;5055442;28;20036;-72
2021/07/10 07:50:10;;;;;;;16.65;9.00;;;;;;;-145.18;100.00;60484.78;5061487;28;20028;-72
2021/07/10 07:52:36;;;;;;;18.13;7.50;;;;;;;-145.18;100.00;60484.78;5055488;28;20109;-72
2021/07/10 07:55:04;;;;;;;17.10;8.40;;;;;;;-145.18;100.00;60484.78;5058201;28;20068;-72
2021/07/10 07:57:29;;;;;;;16.75;8.13;;;;;;;-145.18;100.00;60484.78;5058573;28;20510;-75
2021/07/10 07:59:55;;;;;;;15.27;7.43;;;;;;;-145.18;100.00;60484.78;5061951;28;20027;-75
2021/07/10 08:02:23;;;;;;;15.65;7.55;;;;;;;-145.18;100.00;60484.78;5059499;28;20036;-76
2021/07/10 08:04:49;;;;;;;14.30;7.15;;;;;;;-145.18;100.00;60484.78;5061885;28;20146;-76
2021/07/10 08:07:14;;;;;;;14.07;7.55;;;;;;;-145.18;100.00;60484.78;5060529;28;20029;-74
2021/07/10 08:09:40;;;;;;;15.52;7.68;;;;;;;-145.18;100.00;60484.78;5061648;28;20042;-73
2021/07/10 08:12:06;;;;;;;16.98;7.78;;;;;;;-145.18;100.00;60484.78;5061291;28;20045;-72
2021/07/10 08:14:31;;;;;;;16.23;7.82;;;;;;;-145.18;100.00;60484.78;5061114;28;20036;-71
2021/07/10 08:16:57;;;;;;;15.48;7.68;;;;;;;-145.18;100.00;60484.78;5051721;28;20031;-71
2021/07/10 08:19:22;;;;;;;17.83;8.32;;;;;;;-145.18;100.00;60484.78;5058202;28;20808;-71
2021/07/10 08:21:48;;;;;;;17.58;8.93;;;;;;;-145.18;100.00;60484.78;5053201;28;20108;-71
2021/07/10 08:24:13;;;;;;;20.85;9.02;;;;;;;-145.18;100.00;60484.78;5058081;28;20040;-70
2021/07/10 08:26:39;;;;;;;18.85;9.40;;;;;;;-145.18;100.00;60484.78;5054199;28;20056;-71
2021/07/10 08:29:05;;;;;;;20.50;9.57;;;;;;;-145.18;100.00;60484.78;5057879;28;20040;-71
2021/07/10 08:31:32;;;;;;;18.55;9.75;;;;;;;-145.18;100.00;60484.78;5054584;28;20037;-70
2021/07/10 08:33:59;;;;;;;19.15;9.32;;;;;;;-145.18;100.00;60484.78;5057790;28;20032;-70
2021/07/10 08:36:24;;;;;;;20.67;8.50;;;;;;;-145.18;100.00;60484.78;5055866;28;20052;-71
2021/07/10 08:38:50;;;;;;;17.52;8.70;;;;;;;-145.18;100.00;60484.78;5057351;28;20036;-73
2021/07/10 08:41:16;;;;;;;17.77;9.35;;;;;;;-145.18;100.00;60484.78;5060659;28;20036;-72
2021/07/10 08:43:43;;;;;;;20.25;9.10;;;;;;;-145.18;100.00;60484.78;5061305;28;20118;-72
2021/07/10 08:46:12;;;;;;;18.38;8.80;;;;;;;-145.18;100.00;60484.78;5062385;28;20036;-74
2021/07/10 08:48:37;;;;;;;19.73;8.77;;;;;;;-145.18;100.00;60484.78;5057972;28;20037;-75
2021/07/10 08:51:05;;;;;;;15.85;8.10;;;;;;;-145.18;100.00;60484.78;5058664;28;20845;-74
2021/07/10 08:53:31;;;;;;;17.70;8.15;;;;;;;-145.18;100.00;60484.78;5058425;28;20039;-75
2021/07/10 08:55:57;;;;;;;18.13;8.10;;;;;;;-145.18;100.00;60484.78;5060016;28;20029;-74
2021/07/10 08:58:23;;;;;;;18.58;8.45;;;;;;;-145.18;100.00;60484.78;5057543;28;20028;-76
2021/07/10 09:00:48;;;;;;;19.08;7.40;;;;;;;-145.18;100.00;60484.78;5056823;28;20017;-72
2021/07/10 09:03:14;;;;;;;17.35;7.93;;;;;;;-145.18;100.00;60484.78;5058103;28;20480;-73
2021/07/10 09:05:40;;;;;;;17.73;8.90;;;;;;;-145.18;100.00;60484.78;5054968;28;20461;-74
2021/07/10 09:08:23;;;;;;;15.25;8.30;;;;;;;-145.18;100.00;60484.78;5058980;28;20462;-72
2021/07/10 09:10:52;;;;;;;17.17;8.05;;;;;;;-145.18;100.00;60484.78;5059051;28;20027;-71
2021/07/10 09:13:19;;;;;;;20.98;8.70;;;;;;;-145.18;100.00;60484.78;5050128;28;20032;-71
2021/07/10 09:15:48;;;;;;;18.80;8.50;;;;;;;-145.18;100.00;60484.78;5056998;28;20134;-71
2021/07/10 09:18:15;;;;;;;18.27;8.50;;;;;;;-145.18;100.00;60484.78;5053753;28;20025;-70
2021/07/10 09:20:43;;;;;;;16.30;8.40;;;;;;;-145.18;100.00;60484.78;5057649;28;20035;-70
2021/07/10 09:23:29;;;;;;;21.88;9.05;;;;;;;-145.18;100.00;60484.78;5051642;28;20086;-71
2021/07/10 09:26:14;;;;;;;20.83;9.73;;;;;;;-145.18;100.00;60484.78;5059148;28;20024;-71
2021/07/10 09:28:40;;;;;;;18.75;8.70;;;;;;;-145.18;100.00;60484.78;5064131;28;20051;-71
2021/07/10 09:31:14;;;;;;;17.63;8.90;;;;;;;-145.18;100.00;60484.78;5051470;28;20803;-71
2021/07/10 09:33:40;;;;;;;16.52;8.00;;;;;;;-145.18;100.00;60484.78;5055496;28;20032;-70
2021/07/10 09:36:09;;;;;;;15.52;7.75;;;;;;;-145.18;100.00;60484.78;5061576;28;20039;-70
2021/07/10 09:38:34;;;;;;;17.77;9.20;;;;;;;-145.18;100.00;60484.78;5057433;28;20040;-70
2021/07/10 09:41:11;;;;;;;15.57;7.97;;;;;;;-145.18;100.00;60484.78;5059994;28;20374;-70
2021/07/10 09:43:38;;;;;;;19.20;8.18;;;;;;;-145.18;100.00;60484.78;5056550;28;20032;-71
2021/07/10 09:46:08;;;;;;;16.55;7.72;;;;;;;-145.18;100.00;60484.78;5069006;28;20029;-71
2021/07/10 09:48:40;;;;;;;16.08;8.40;;;;;;;-145.18;100.00;60484.78;5049090;28;20032;-74
2021/07/10 09:51:23;;;;;;;14.75;7.43;;;;;;;-145.18;100.00;60484.78;5065041;28;20020;-71
2021/07/10 09:54:09;;;;;;;16.63;8.48;;;;;;;-145.18;100.00;60484.78;5061051;28;20035;-71
2021/07/10 09:56:37;;;;;;;15.05;7.38;;;;;;;-145.18;100.00;60484.78;5054870;28;20032;-71
2021/07/10 09:59:24;;;;;;;19.30;7.75;;;;;;;-145.18;100.00;60484.78;5045519;28;20037;-74
2021/07/10 10:01:50;;;;;;;14.10;7.28;;;;;;;-145.18;100.00;60484.78;5055595;28;20747;-73
2021/07/10 10:04:24;;;;;;;14.05;6.53;;;;;;;-145.18;100.00;60484.78;5055243;28;20040;-73
2021/07/10 10:06:57;;;;;;;15.73;7.07;;;;;;;-145.18;100.00;60484.78;5048653;28;20025;-74
2021/07/10 10:09:28;;;;;;;15.18;6.47;;;;;;;-145.18;100.00;60484.78;5054530;28;20465;-74
2021/07/10 10:12:14;;;;;;;12.60;6.10;;;;;;;-145.18;100.00;60484.78;5054575;28;20024;-74
2021/07/10 10:14:48;;;;;;;13.43;5.57;;;;;;;-145.18;100.00;60484.78;5048292;28;20278;-74
2021/07/10 10:17:16;;;;;;;14.77;5.75;;;;;;;-145.18;100.00;60484.78;5045180;28;20021;-73
2021/07/10 10:19:43;;;;;;;11.40;5.88;;;;;;;-145.18;100.00;60484.78;5059136;28;20115;-74
2021/07/10 10:22:09;;;;;;;15.98;5.85;;;;;;;-145.18;100.00;60484.78;5056866;28;20384;-74
2021/07/10 10:24:37;;;;;;;12.10;5.05;;;;;;;-145.18;100.00;60484.78;5055219;28;20079;-74
2021/07/10 10:27:04;;;;;;;11.77;5.35;;;;;;;-145.18;100.00;60484.78;5050520;28;20031;-74
2021/07/10 10:29:30;;;;;;;11.15;5.72;;;;;;;-145.18;100.00;60484.78;5054245;28;20931;-74
2021/07/10 10:31:56;;;;;;;12.65;6.03;;;;;;;-145.18;100.00;60484.78;5054706;28;20029;-73
2021/07/10 10:34:22;;;;;;;9.45;5.05;;;;;;;-145.18;100.00;60484.78;5053016;28;20132;-73
2021/07/10 10:36:50;;;;;;;10.57;5.63;;;;;;;-145.18;100.00;60484.78;5060578;28;20020;-72
2021/07/10 10:39:23;;;;;;;10.57;5.28;;;;;;;-145.18;100.00;60484.78;5056169;28;20115;-71
2021/07/10 10:41:51;;;;;;;10.93;5.68;;;;;;;-145.18;100.00;60484.78;5061717;28;20028;-72
2021/07/10 10:44:18;;;;;;;10.68;5.70;;;;;;;-145.18;100.00;60484.78;5055210;28;20028;-71
2021/07/10 10:47:02;;;;;;;11.00;5.70;;;;;;;-145.18;100.00;60484.78;5057018;28;20028;-70
2021/07/10 10:49:46;;;;;;;10.48;5.38;;;;;;;-145.18;100.00;60484.78;5054566;28;20024;-70
2021/07/10 10:52:34;;;;;;;11.13;5.80;;;;;;;-145.18;100.00;60484.78;5044857;28;20029;-70
2021/07/10 10:55:13;;;;;;;11.60;6.15;;;;;;;-145.18;100.00;60484.78;5061145;28;20025;-70
2021/07/10 10:57:51;;;;;;;15.63;7.13;;;;;;;-145.18;100.00;60484.78;5053370;28;20024;-70
2021/07/10 11:00:37;;;;;;;11.38;5.35;;;;;;;-145.18;100.00;60484.78;5058011;28;20814;-70